sensor_id;sensor_type;location;lat;lon;timestamp;P1;durP1;ratioP1;P2;durP2;ratioP2
19946;SDS011;10135;50.702;7.276;2022-07-06T00:01:15;1.73;;;1.30;;
19946;SDS011;10135;50.702;7.276;2022-07-06T00:03:16;1.95;;;1.48;;
19946;SDS011;10135;50.702;7.276;2022-07-06T00:05:16;1.10;;;1.10;;
19946;SDS011;10135;50.702;7.276;2022-07-06T00:07:17;1.08;;;1.08;;
19946;SDS011;10135;50.702;7.276;2022-07-06T00:09:18;1.07;;;1.07;;
19946;SDS011;10135;50.702;7.276;2022-07-06T00:11:19;1.37;;;1.20;;
19946;SDS011;10135;50.702;7.276;2022-07-06T00:13:19;1.73;;;1.40;;
19946;SDS011;10135;50.702;7.276;2022-07-06T00:15:20;1.20;;;1.10;;
19946;SDS011;10135;50.702;7.276;2022-07-06T00:17:21;1.57;;;1.20;;
19946;SDS011;10135;50.702;7.276;2022-07-06T00:19:21;1.95;;;1.10;;
19946;SDS011;10135;50.702;7.276;2022-07-06T00:21:22;2.50;;;1.20;;
19946;SDS011;10135;50.702;7.276;2022-07-06T00:23:23;1.30;;;1.20;;
19946;SDS011;10135;50.702;7.276;2022-07-06T00:25:24;1.80;;;1.33;;
19946;SDS011;10135;50.702;7.276;2022-07-06T00:27:25;1.40;;;1.30;;
19946;SDS011;10135;50.702;7.276;2022-07-06T00:29:25;2.30;;;1.20;;
19946;SDS011;10135;50.702;7.276;2022-07-06T00:31:26;1.87;;;1.40;;
19946;SDS011;10135;50.702;7.276;2022-07-06T00:33:28;1.60;;;1.27;;
19946;SDS011;10135;50.702;7.276;2022-07-06T00:35:29;1.50;;;1.40;;
19946;SDS011;10135;50.702;7.276;2022-07-06T00:37:30;1.43;;;1.33;;
19946;SDS011;10135;50.702;7.276;2022-07-06T00:39:30;1.33;;;1.17;;
19946;SDS011;10135;50.702;7.276;2022-07-06T00:41:31;2.43;;;1.43;;
19946;SDS011;10135;50.702;7.276;2022-07-06T00:43:50;1.43;;;1.13;;
19946;SDS011;10135;50.702;7.276;2022-07-06T00:45:56;1.33;;;1.17;;
19946;SDS011;10135;50.702;7.276;2022-07-06T00:47:57;4.20;;;1.37;;
19946;SDS011;10135;50.702;7.276;2022-07-06T00:49:58;1.33;;;1.20;;
19946;SDS011;10135;50.702;7.276;2022-07-06T00:52:13;3.20;;;1.17;;
19946;SDS011;10135;50.702;7.276;2022-07-06T00:54:15;3.03;;;1.20;;
19946;SDS011;10135;50.702;7.276;2022-07-06T00:56:15;1.53;;;1.07;;
19946;SDS011;10135;50.702;7.276;2022-07-06T00:58:16;2.50;;;1.17;;
19946;SDS011;10135;50.702;7.276;2022-07-06T01:00:18;1.20;;;1.10;;
19946;SDS011;10135;50.702;7.276;2022-07-06T01:02:21;1.63;;;1.10;;
19946;SDS011;10135;50.702;7.276;2022-07-06T01:04:22;2.00;;;1.20;;
19946;SDS011;10135;50.702;7.276;2022-07-06T01:06:23;1.73;;;1.30;;
19946;SDS011;10135;50.702;7.276;2022-07-06T01:08:24;1.50;;;1.20;;
19946;SDS011;10135;50.702;7.276;2022-07-06T01:10:24;1.27;;;1.20;;
19946;SDS011;10135;50.702;7.276;2022-07-06T01:12:25;2.47;;;1.20;;
19946;SDS011;10135;50.702;7.276;2022-07-06T01:14:26;1.87;;;1.30;;
19946;SDS011;10135;50.702;7.276;2022-07-06T01:16:27;1.43;;;1.33;;
19946;SDS011;10135;50.702;7.276;2022-07-06T01:18:28;1.37;;;1.13;;
19946;SDS011;10135;50.702;7.276;2022-07-06T01:20:29;1.77;;;1.33;;
19946;SDS011;10135;50.702;7.276;2022-07-06T01:22:30;1.63;;;1.27;;
19946;SDS011;10135;50.702;7.276;2022-07-06T01:24:31;2.37;;;1.20;;
19946;SDS011;10135;50.702;7.276;2022-07-06T01:26:31;1.37;;;1.20;;
19946;SDS011;10135;50.702;7.276;2022-07-06T01:28:32;1.20;;;1.20;;
19946;SDS011;10135;50.702;7.276;2022-07-06T01:30:33;1.33;;;1.23;;
19946;SDS011;10135;50.702;7.276;2022-07-06T01:32:34;1.27;;;1.17;;
19946;SDS011;10135;50.702;7.276;2022-07-06T01:34:36;2.73;;;1.40;;
19946;SDS011;10135;50.702;7.276;2022-07-06T01:36:36;1.37;;;1.27;;
19946;SDS011;10135;50.702;7.276;2022-07-06T01:38:50;2.70;;;1.40;;
19946;SDS011;10135;50.702;7.276;2022-07-06T01:40:53;1.30;;;1.20;;
19946;SDS011;10135;50.702;7.276;2022-07-06T01:42:54;2.30;;;1.40;;
19946;SDS011;10135;50.702;7.276;2022-07-06T01:44:55;1.47;;;1.47;;
19946;SDS011;10135;50.702;7.276;2022-07-06T01:46:55;2.43;;;1.40;;
19946;SDS011;10135;50.702;7.276;2022-07-06T01:48:56;1.40;;;1.30;;
19946;SDS011;10135;50.702;7.276;2022-07-06T01:50:57;1.53;;;1.33;;
19946;SDS011;10135;50.702;7.276;2022-07-06T01:53:01;1.70;;;1.60;;
19946;SDS011;10135;50.702;7.276;2022-07-06T01:55:01;1.50;;;1.40;;
19946;SDS011;10135;50.702;7.276;2022-07-06T01:57:03;1.50;;;1.50;;
19946;SDS011;10135;50.702;7.276;2022-07-06T01:59:03;1.53;;;1.43;;
19946;SDS011;10135;50.702;7.276;2022-07-06T02:01:11;1.43;;;1.43;;
19946;SDS011;10135;50.702;7.276;2022-07-06T02:03:17;1.70;;;1.60;;
19946;SDS011;10135;50.702;7.276;2022-07-06T02:05:17;1.53;;;1.43;;
19946;SDS011;10135;50.702;7.276;2022-07-06T02:07:18;2.20;;;1.60;;
19946;SDS011;10135;50.702;7.276;2022-07-06T02:09:19;1.57;;;1.47;;
19946;SDS011;10135;50.702;7.276;2022-07-06T02:11:19;2.57;;;1.60;;
19946;SDS011;10135;50.702;7.276;2022-07-06T02:13:20;2.33;;;1.90;;
19946;SDS011;10135;50.702;7.276;2022-07-06T02:15:21;2.50;;;1.50;;
19946;SDS011;10135;50.702;7.276;2022-07-06T02:17:22;1.50;;;1.40;;
19946;SDS011;10135;50.702;7.276;2022-07-06T02:19:22;1.80;;;1.40;;
19946;SDS011;10135;50.702;7.276;2022-07-06T02:21:23;1.57;;;1.47;;
19946;SDS011;10135;50.702;7.276;2022-07-06T02:23:24;1.70;;;1.60;;
19946;SDS011;10135;50.702;7.276;2022-07-06T02:25:26;1.60;;;1.50;;
19946;SDS011;10135;50.702;7.276;2022-07-06T02:27:26;1.73;;;1.63;;
19946;SDS011;10135;50.702;7.276;2022-07-06T02:29:27;1.63;;;1.40;;
19946;SDS011;10135;50.702;7.276;2022-07-06T02:31:27;1.43;;;1.43;;
19946;SDS011;10135;50.702;7.276;2022-07-06T02:33:28;2.97;;;1.60;;
19946;SDS011;10135;50.702;7.276;2022-07-06T02:35:29;1.70;;;1.60;;
19946;SDS011;10135;50.702;7.276;2022-07-06T02:37:29;2.63;;;1.70;;
19946;SDS011;10135;50.702;7.276;2022-07-06T02:39:30;2.00;;;1.73;;
19946;SDS011;10135;50.702;7.276;2022-07-06T02:41:31;1.33;;;1.33;;
19946;SDS011;10135;50.702;7.276;2022-07-06T02:43:31;1.73;;;1.57;;
19946;SDS011;10135;50.702;7.276;2022-07-06T02:45:32;3.93;;;1.63;;
19946;SDS011;10135;50.702;7.276;2022-07-06T02:47:33;1.73;;;1.63;;
19946;SDS011;10135;50.702;7.276;2022-07-06T02:49:33;2.00;;;1.63;;
19946;SDS011;10135;50.702;7.276;2022-07-06T02:51:34;1.67;;;1.57;;
19946;SDS011;10135;50.702;7.276;2022-07-06T02:53:35;1.67;;;1.57;;
19946;SDS011;10135;50.702;7.276;2022-07-06T02:55:35;1.60;;;1.53;;
19946;SDS011;10135;50.702;7.276;2022-07-06T02:57:36;2.13;;;1.90;;
19946;SDS011;10135;50.702;7.276;2022-07-06T02:59:37;4.60;;;1.60;;
19946;SDS011;10135;50.702;7.276;2022-07-06T03:01:38;2.00;;;1.73;;
19946;SDS011;10135;50.702;7.276;2022-07-06T03:03:38;1.73;;;1.63;;
19946;SDS011;10135;50.702;7.276;2022-07-06T03:05:39;1.90;;;1.80;;
19946;SDS011;10135;50.702;7.276;2022-07-06T03:07:39;1.73;;;1.63;;
19946;SDS011;10135;50.702;7.276;2022-07-06T03:09:40;2.30;;;2.10;;
19946;SDS011;10135;50.702;7.276;2022-07-06T03:11:41;2.07;;;1.87;;
19946;SDS011;10135;50.702;7.276;2022-07-06T03:13:42;3.80;;;1.90;;
19946;SDS011;10135;50.702;7.276;2022-07-06T03:15:42;2.93;;;1.70;;
19946;SDS011;10135;50.702;7.276;2022-07-06T03:17:43;3.13;;;2.00;;
19946;SDS011;10135;50.702;7.276;2022-07-06T03:19:43;2.33;;;1.80;;
19946;SDS011;10135;50.702;7.276;2022-07-06T03:21:44;2.07;;;1.70;;
19946;SDS011;10135;50.702;7.276;2022-07-06T03:23:45;2.23;;;2.03;;
19946;SDS011;10135;50.702;7.276;2022-07-06T03:25:45;2.60;;;1.80;;
19946;SDS011;10135;50.702;7.276;2022-07-06T03:27:46;2.10;;;1.90;;
19946;SDS011;10135;50.702;7.276;2022-07-06T03:29:47;1.90;;;1.73;;
19946;SDS011;10135;50.702;7.276;2022-07-06T03:31:48;3.03;;;2.20;;
19946;SDS011;10135;50.702;7.276;2022-07-06T03:33:49;2.33;;;2.13;;
19946;SDS011;10135;50.702;7.276;2022-07-06T03:35:49;2.10;;;1.93;;
19946;SDS011;10135;50.702;7.276;2022-07-06T03:37:50;3.10;;;1.80;;
19946;SDS011;10135;50.702;7.276;2022-07-06T03:39:50;1.93;;;1.83;;
19946;SDS011;10135;50.702;7.276;2022-07-06T03:41:51;2.63;;;2.00;;
19946;SDS011;10135;50.702;7.276;2022-07-06T03:43:52;1.90;;;1.80;;
19946;SDS011;10135;50.702;7.276;2022-07-06T03:45:52;2.40;;;2.20;;
19946;SDS011;10135;50.702;7.276;2022-07-06T03:47:53;3.13;;;2.10;;
19946;SDS011;10135;50.702;7.276;2022-07-06T03:49:53;1.90;;;1.80;;
19946;SDS011;10135;50.702;7.276;2022-07-06T03:51:54;2.57;;;2.27;;
19946;SDS011;10135;50.702;7.276;2022-07-06T03:53:55;1.70;;;1.60;;
19946;SDS011;10135;50.702;7.276;2022-07-06T03:55:55;2.07;;;1.90;;
19946;SDS011;10135;50.702;7.276;2022-07-06T03:58:15;2.03;;;1.93;;
19946;SDS011;10135;50.702;7.276;2022-07-06T04:00:16;3.57;;;2.20;;
19946;SDS011;10135;50.702;7.276;2022-07-06T04:02:16;2.33;;;2.10;;
19946;SDS011;10135;50.702;7.276;2022-07-06T04:04:17;1.90;;;1.80;;
19946;SDS011;10135;50.702;7.276;2022-07-06T04:06:18;2.27;;;1.80;;
19946;SDS011;10135;50.702;7.276;2022-07-06T04:08:19;2.83;;;1.90;;
19946;SDS011;10135;50.702;7.276;2022-07-06T04:10:20;2.20;;;2.10;;
19946;SDS011;10135;50.702;7.276;2022-07-06T04:12:20;3.70;;;2.40;;
19946;SDS011;10135;50.702;7.276;2022-07-06T04:14:21;2.70;;;2.40;;
19946;SDS011;10135;50.702;7.276;2022-07-06T04:16:22;2.40;;;2.00;;
19946;SDS011;10135;50.702;7.276;2022-07-06T04:18:22;2.33;;;2.13;;
19946;SDS011;10135;50.702;7.276;2022-07-06T04:20:23;2.83;;;2.10;;
19946;SDS011;10135;50.702;7.276;2022-07-06T04:22:25;2.27;;;2.17;;
19946;SDS011;10135;50.702;7.276;2022-07-06T04:24:26;4.20;;;2.17;;
19946;SDS011;10135;50.702;7.276;2022-07-06T04:26:27;2.73;;;1.90;;
19946;SDS011;10135;50.702;7.276;2022-07-06T04:28:27;2.63;;;2.13;;
19946;SDS011;10135;50.702;7.276;2022-07-06T04:30:28;2.00;;;1.90;;
19946;SDS011;10135;50.702;7.276;2022-07-06T04:32:29;3.20;;;2.10;;
19946;SDS011;10135;50.702;7.276;2022-07-06T04:34:30;3.17;;;2.07;;
19946;SDS011;10135;50.702;7.276;2022-07-06T04:36:31;2.50;;;1.90;;
19946;SDS011;10135;50.702;7.276;2022-07-06T04:38:32;2.00;;;1.90;;
19946;SDS011;10135;50.702;7.276;2022-07-06T04:40:33;2.40;;;1.90;;
19946;SDS011;10135;50.702;7.276;2022-07-06T04:42:33;2.60;;;2.30;;
19946;SDS011;10135;50.702;7.276;2022-07-06T04:44:34;2.23;;;2.10;;
19946;SDS011;10135;50.702;7.276;2022-07-06T04:46:34;2.20;;;1.80;;
19946;SDS011;10135;50.702;7.276;2022-07-06T04:48:35;2.13;;;2.00;;
19946;SDS011;10135;50.702;7.276;2022-07-06T04:50:39;3.00;;;1.97;;
19946;SDS011;10135;50.702;7.276;2022-07-06T04:52:39;2.30;;;2.10;;
19946;SDS011;10135;50.702;7.276;2022-07-06T04:54:40;1.93;;;1.83;;
19946;SDS011;10135;50.702;7.276;2022-07-06T04:56:41;2.13;;;1.93;;
19946;SDS011;10135;50.702;7.276;2022-07-06T04:58:41;2.03;;;1.80;;
19946;SDS011;10135;50.702;7.276;2022-07-06T05:00:42;2.87;;;2.30;;
19946;SDS011;10135;50.702;7.276;2022-07-06T05:02:42;2.07;;;1.97;;
19946;SDS011;10135;50.702;7.276;2022-07-06T05:04:43;2.10;;;2.00;;
19946;SDS011;10135;50.702;7.276;2022-07-06T05:06:44;5.03;;;2.23;;
19946;SDS011;10135;50.702;7.276;2022-07-06T05:08:45;4.63;;;1.87;;
19946;SDS011;10135;50.702;7.276;2022-07-06T05:10:47;2.40;;;2.23;;
19946;SDS011;10135;50.702;7.276;2022-07-06T05:12:48;2.07;;;1.87;;
19946;SDS011;10135;50.702;7.276;2022-07-06T05:14:49;3.67;;;2.20;;
19946;SDS011;10135;50.702;7.276;2022-07-06T05:16:50;2.60;;;2.03;;
19946;SDS011;10135;50.702;7.276;2022-07-06T05:18:50;2.80;;;2.20;;
19946;SDS011;10135;50.702;7.276;2022-07-06T05:20:51;3.30;;;2.00;;
19946;SDS011;10135;50.702;7.276;2022-07-06T05:22:52;2.40;;;2.20;;
19946;SDS011;10135;50.702;7.276;2022-07-06T05:24:52;5.17;;;2.30;;
19946;SDS011;10135;50.702;7.276;2022-07-06T05:26:53;2.20;;;2.10;;
19946;SDS011;10135;50.702;7.276;2022-07-06T05:28:54;2.57;;;2.20;;
19946;SDS011;10135;50.702;7.276;2022-07-06T05:30:54;1.97;;;1.80;;
19946;SDS011;10135;50.702;7.276;2022-07-06T05:32:55;2.27;;;1.97;;
19946;SDS011;10135;50.702;7.276;2022-07-06T05:34:56;2.80;;;2.40;;
19946;SDS011;10135;50.702;7.276;2022-07-06T05:36:56;2.17;;;2.07;;
19946;SDS011;10135;50.702;7.276;2022-07-06T05:38:57;2.37;;;1.97;;
19946;SDS011;10135;50.702;7.276;2022-07-06T05:40:58;2.10;;;2.00;;
19946;SDS011;10135;50.702;7.276;2022-07-06T05:42:58;3.17;;;2.20;;
19946;SDS011;10135;50.702;7.276;2022-07-06T05:44:59;2.30;;;2.20;;
19946;SDS011;10135;50.702;7.276;2022-07-06T05:47:00;3.67;;;2.20;;
19946;SDS011;10135;50.702;7.276;2022-07-06T05:49:19;2.60;;;2.40;;
19946;SDS011;10135;50.702;7.276;2022-07-06T05:51:38;2.90;;;2.23;;
19946;SDS011;10135;50.702;7.276;2022-07-06T05:53:38;2.80;;;2.10;;
19946;SDS011;10135;50.702;7.276;2022-07-06T05:55:39;4.53;;;2.30;;
19946;SDS011;10135;50.702;7.276;2022-07-06T05:57:40;2.87;;;2.20;;
19946;SDS011;10135;50.702;7.276;2022-07-06T05:59:40;2.57;;;2.37;;
19946;SDS011;10135;50.702;7.276;2022-07-06T06:01:41;3.53;;;2.17;;
19946;SDS011;10135;50.702;7.276;2022-07-06T06:03:41;3.83;;;2.23;;
19946;SDS011;10135;50.702;7.276;2022-07-06T06:05:42;2.47;;;2.37;;
19946;SDS011;10135;50.702;7.276;2022-07-06T06:07:43;3.63;;;2.40;;
19946;SDS011;10135;50.702;7.276;2022-07-06T06:09:46;3.43;;;2.30;;
19946;SDS011;10135;50.702;7.276;2022-07-06T06:11:46;3.13;;;2.10;;
19946;SDS011;10135;50.702;7.276;2022-07-06T06:13:47;2.50;;;2.30;;
19946;SDS011;10135;50.702;7.276;2022-07-06T06:15:48;2.07;;;1.97;;
19946;SDS011;10135;50.702;7.276;2022-07-06T06:17:48;1.97;;;1.87;;
19946;SDS011;10135;50.702;7.276;2022-07-06T06:19:49;2.73;;;2.07;;
19946;SDS011;10135;50.702;7.276;2022-07-06T06:21:50;2.30;;;2.10;;
19946;SDS011;10135;50.702;7.276;2022-07-06T06:23:51;3.33;;;2.07;;
19946;SDS011;10135;50.702;7.276;2022-07-06T06:25:52;4.13;;;2.00;;
19946;SDS011;10135;50.702;7.276;2022-07-06T06:27:53;2.57;;;2.10;;
19946;SDS011;10135;50.702;7.276;2022-07-06T06:29:53;1.93;;;1.83;;
19946;SDS011;10135;50.702;7.276;2022-07-06T06:31:54;3.13;;;1.73;;
19946;SDS011;10135;50.702;7.276;2022-07-06T06:33:55;1.80;;;1.70;;
19946;SDS011;10135;50.702;7.276;2022-07-06T06:35:55;2.20;;;2.00;;
19946;SDS011;10135;50.702;7.276;2022-07-06T06:37:56;2.70;;;2.00;;
19946;SDS011;10135;50.702;7.276;2022-07-06T06:39:57;2.60;;;2.00;;
19946;SDS011;10135;50.702;7.276;2022-07-06T06:41:57;4.90;;;2.13;;
19946;SDS011;10135;50.702;7.276;2022-07-06T06:43:58;2.43;;;2.10;;
19946;SDS011;10135;50.702;7.276;2022-07-06T06:45:59;2.60;;;1.80;;
19946;SDS011;10135;50.702;7.276;2022-07-06T06:47:59;3.60;;;2.03;;
19946;SDS011;10135;50.702;7.276;2022-07-06T06:50:00;2.27;;;1.67;;
19946;SDS011;10135;50.702;7.276;2022-07-06T06:52:01;2.47;;;1.97;;
19946;SDS011;10135;50.702;7.276;2022-07-06T06:54:02;3.40;;;1.83;;
19946;SDS011;10135;50.702;7.276;2022-07-06T06:56:03;3.83;;;2.10;;
19946;SDS011;10135;50.702;7.276;2022-07-06T06:58:03;4.67;;;1.90;;
19946;SDS011;10135;50.702;7.276;2022-07-06T07:00:04;2.07;;;1.87;;
19946;SDS011;10135;50.702;7.276;2022-07-06T07:02:06;4.10;;;1.73;;
19946;SDS011;10135;50.702;7.276;2022-07-06T07:04:06;2.10;;;1.63;;
19946;SDS011;10135;50.702;7.276;2022-07-06T07:06:07;2.03;;;1.80;;
19946;SDS011;10135;50.702;7.276;2022-07-06T07:08:08;2.73;;;1.40;;
19946;SDS011;10135;50.702;7.276;2022-07-06T07:10:09;4.17;;;1.63;;
19946;SDS011;10135;50.702;7.276;2022-07-06T07:12:09;1.30;;;1.30;;
19946;SDS011;10135;50.702;7.276;2022-07-06T07:14:11;2.00;;;1.50;;
19946;SDS011;10135;50.702;7.276;2022-07-06T07:16:12;2.73;;;1.50;;
19946;SDS011;10135;50.702;7.276;2022-07-06T07:18:13;4.00;;;1.47;;
19946;SDS011;10135;50.702;7.276;2022-07-06T07:20:13;1.40;;;1.30;;
19946;SDS011;10135;50.702;7.276;2022-07-06T07:22:14;2.57;;;1.63;;
19946;SDS011;10135;50.702;7.276;2022-07-06T07:24:15;2.43;;;1.57;;
19946;SDS011;10135;50.702;7.276;2022-07-06T07:26:16;2.83;;;1.50;;
19946;SDS011;10135;50.702;7.276;2022-07-06T07:28:17;1.40;;;1.30;;
19946;SDS011;10135;50.702;7.276;2022-07-06T07:30:17;1.37;;;1.33;;
19946;SDS011;10135;50.702;7.276;2022-07-06T07:32:18;1.20;;;1.20;;
19946;SDS011;10135;50.702;7.276;2022-07-06T07:34:19;1.77;;;1.60;;
19946;SDS011;10135;50.702;7.276;2022-07-06T07:36:20;1.37;;;1.27;;
19946;SDS011;10135;50.702;7.276;2022-07-06T07:38:21;1.67;;;1.20;;
19946;SDS011;10135;50.702;7.276;2022-07-06T07:40:21;1.47;;;1.37;;
19946;SDS011;10135;50.702;7.276;2022-07-06T07:42:22;3.50;;;1.33;;
19946;SDS011;10135;50.702;7.276;2022-07-06T07:44:23;1.60;;;1.30;;
19946;SDS011;10135;50.702;7.276;2022-07-06T07:46:24;1.40;;;1.30;;
19946;SDS011;10135;50.702;7.276;2022-07-06T07:48:25;2.07;;;1.23;;
19946;SDS011;10135;50.702;7.276;2022-07-06T07:50:26;1.77;;;1.20;;
19946;SDS011;10135;50.702;7.276;2022-07-06T07:52:26;1.70;;;1.20;;
19946;SDS011;10135;50.702;7.276;2022-07-06T07:54:27;1.53;;;1.20;;
19946;SDS011;10135;50.702;7.276;2022-07-06T07:56:28;5.43;;;1.23;;
19946;SDS011;10135;50.702;7.276;2022-07-06T07:58:28;2.10;;;1.00;;
19946;SDS011;10135;50.702;7.276;2022-07-06T08:00:29;1.57;;;1.10;;
19946;SDS011;10135;50.702;7.276;2022-07-06T08:02:30;2.90;;;0.90;;
19946;SDS011;10135;50.702;7.276;2022-07-06T08:04:30;1.90;;;1.00;;
19946;SDS011;10135;50.702;7.276;2022-07-06T08:06:31;1.13;;;1.00;;
19946;SDS011;10135;50.702;7.276;2022-07-06T08:08:32;1.07;;;0.90;;
19946;SDS011;10135;50.702;7.276;2022-07-06T08:10:33;0.80;;;0.80;;
19946;SDS011;10135;50.702;7.276;2022-07-06T08:12:33;1.90;;;1.20;;
19946;SDS011;10135;50.702;7.276;2022-07-06T08:14:34;1.23;;;1.03;;
19946;SDS011;10135;50.702;7.276;2022-07-06T08:16:37;0.80;;;0.80;;
19946;SDS011;10135;50.702;7.276;2022-07-06T08:18:37;2.47;;;0.93;;
19946;SDS011;10135;50.702;7.276;2022-07-06T08:20:38;0.83;;;0.83;;
19946;SDS011;10135;50.702;7.276;2022-07-06T08:22:39;3.03;;;1.13;;
19946;SDS011;10135;50.702;7.276;2022-07-06T08:24:42;1.47;;;1.10;;
19946;SDS011;10135;50.702;7.276;2022-07-06T08:26:42;2.40;;;0.90;;
19946;SDS011;10135;50.702;7.276;2022-07-06T08:28:43;1.40;;;1.03;;
19946;SDS011;10135;50.702;7.276;2022-07-06T08:30:44;1.33;;;1.10;;
19946;SDS011;10135;50.702;7.276;2022-07-06T08:32:45;1.37;;;1.27;;
19946;SDS011;10135;50.702;7.276;2022-07-06T08:34:47;1.30;;;1.20;;
19946;SDS011;10135;50.702;7.276;2022-07-06T08:36:47;3.93;;;1.37;;
19946;SDS011;10135;50.702;7.276;2022-07-06T08:38:49;2.63;;;1.43;;
19946;SDS011;10135;50.702;7.276;2022-07-06T08:40:50;1.93;;;1.20;;
19946;SDS011;10135;50.702;7.276;2022-07-06T08:42:53;2.23;;;1.20;;
19946;SDS011;10135;50.702;7.276;2022-07-06T08:44:57;7.10;;;1.40;;
19946;SDS011;10135;50.702;7.276;2022-07-06T08:47:00;2.00;;;1.00;;
19946;SDS011;10135;50.702;7.276;2022-07-06T08:49:07;3.07;;;1.00;;
19946;SDS011;10135;50.702;7.276;2022-07-06T08:51:13;1.90;;;1.10;;
19946;SDS011;10135;50.702;7.276;2022-07-06T08:53:15;5.63;;;1.10;;
19946;SDS011;10135;50.702;7.276;2022-07-06T08:55:17;6.33;;;1.07;;
19946;SDS011;10135;50.702;7.276;2022-07-06T08:57:18;1.20;;;1.10;;
19946;SDS011;10135;50.702;7.276;2022-07-06T08:59:19;1.00;;;1.00;;
19946;SDS011;10135;50.702;7.276;2022-07-06T09:01:20;2.33;;;1.10;;
19946;SDS011;10135;50.702;7.276;2022-07-06T09:03:22;1.53;;;1.20;;
19946;SDS011;10135;50.702;7.276;2022-07-06T09:05:23;4.37;;;1.50;;
19946;SDS011;10135;50.702;7.276;2022-07-06T09:07:28;0.90;;;0.90;;
19946;SDS011;10135;50.702;7.276;2022-07-06T09:09:30;1.97;;;1.27;;
19946;SDS011;10135;50.702;7.276;2022-07-06T09:11:31;1.43;;;1.10;;
19946;SDS011;10135;50.702;7.276;2022-07-06T09:13:31;1.20;;;1.10;;
19946;SDS011;10135;50.702;7.276;2022-07-06T09:15:33;1.63;;;1.30;;
19946;SDS011;10135;50.702;7.276;2022-07-06T09:17:39;3.23;;;1.27;;
19946;SDS011;10135;50.702;7.276;2022-07-06T09:19:41;2.90;;;1.30;;
19946;SDS011;10135;50.702;7.276;2022-07-06T09:21:46;1.00;;;1.00;;
19946;SDS011;10135;50.702;7.276;2022-07-06T09:23:52;3.53;;;1.20;;
19946;SDS011;10135;50.702;7.276;2022-07-06T09:25:57;2.27;;;1.27;;
19946;SDS011;10135;50.702;7.276;2022-07-06T09:27:58;1.33;;;1.23;;
19946;SDS011;10135;50.702;7.276;2022-07-06T09:30:00;1.90;;;1.30;;
19946;SDS011;10135;50.702;7.276;2022-07-06T09:32:03;2.27;;;1.23;;
19946;SDS011;10135;50.702;7.276;2022-07-06T09:34:07;2.10;;;1.53;;
19946;SDS011;10135;50.702;7.276;2022-07-06T09:36:11;3.73;;;1.13;;
19946;SDS011;10135;50.702;7.276;2022-07-06T09:38:13;1.10;;;1.10;;
19946;SDS011;10135;50.702;7.276;2022-07-06T09:40:16;1.80;;;1.30;;
19946;SDS011;10135;50.702;7.276;2022-07-06T09:42:21;1.40;;;1.30;;
19946;SDS011;10135;50.702;7.276;2022-07-06T09:44:29;1.23;;;1.20;;
19946;SDS011;10135;50.702;7.276;2022-07-06T09:46:37;2.40;;;1.30;;
19946;SDS011;10135;50.702;7.276;2022-07-06T09:48:41;1.30;;;1.20;;
19946;SDS011;10135;50.702;7.276;2022-07-06T09:50:42;2.87;;;1.40;;
19946;SDS011;10135;50.702;7.276;2022-07-06T09:52:54;1.70;;;1.60;;
19946;SDS011;10135;50.702;7.276;2022-07-06T09:54:55;1.83;;;1.20;;
19946;SDS011;10135;50.702;7.276;2022-07-06T09:56:56;1.20;;;1.17;;
19946;SDS011;10135;50.702;7.276;2022-07-06T09:58:57;1.20;;;1.20;;
19946;SDS011;10135;50.702;7.276;2022-07-06T10:00:58;1.23;;;1.20;;
19946;SDS011;10135;50.702;7.276;2022-07-06T10:02:59;1.58;;;1.38;;
19946;SDS011;10135;50.702;7.276;2022-07-06T10:05:01;1.30;;;1.20;;
19946;SDS011;10135;50.702;7.276;2022-07-06T10:07:03;1.43;;;1.17;;
19946;SDS011;10135;50.702;7.276;2022-07-06T10:09:06;1.35;;;1.30;;
19946;SDS011;10135;50.702;7.276;2022-07-06T10:11:08;1.38;;;1.27;;
19946;SDS011;10135;50.702;7.276;2022-07-06T10:13:14;2.67;;;1.67;;
19946;SDS011;10135;50.702;7.276;2022-07-06T10:15:22;1.73;;;1.58;;
19946;SDS011;10135;50.702;7.276;2022-07-06T10:17:27;2.28;;;1.48;;
19946;SDS011;10135;50.702;7.276;2022-07-06T10:19:29;1.50;;;1.50;;
19946;SDS011;10135;50.702;7.276;2022-07-06T10:21:31;1.42;;;1.42;;
19946;SDS011;10135;50.702;7.276;2022-07-06T10:23:35;1.35;;;1.30;;
19946;SDS011;10135;50.702;7.276;2022-07-06T10:25:36;3.58;;;1.48;;
19946;SDS011;10135;50.702;7.276;2022-07-06T10:27:37;1.25;;;1.25;;
19946;SDS011;10135;50.702;7.276;2022-07-06T10:29:40;1.45;;;1.23;;
19946;SDS011;10135;50.702;7.276;2022-07-06T10:31:43;1.50;;;1.40;;
19946;SDS011;10135;50.702;7.276;2022-07-06T10:33:47;2.17;;;1.50;;
19946;SDS011;10135;50.702;7.276;2022-07-06T10:35:49;1.60;;;1.50;;
19946;SDS011;10135;50.702;7.276;2022-07-06T10:38:03;1.67;;;1.60;;
19946;SDS011;10135;50.702;7.276;2022-07-06T10:40:06;3.60;;;1.45;;
19946;SDS011;10135;50.702;7.276;2022-07-06T10:42:42;2.33;;;1.70;;
19946;SDS011;10135;50.702;7.276;2022-07-06T10:44:56;1.40;;;1.40;;
19946;SDS011;10135;50.702;7.276;2022-07-06T10:46:57;3.15;;;1.63;;
19946;SDS011;10135;50.702;7.276;2022-07-06T10:48:59;1.65;;;1.40;;
19946;SDS011;10135;50.702;7.276;2022-07-06T10:51:26;1.70;;;1.60;;
19946;SDS011;10135;50.702;7.276;2022-07-06T10:53:30;2.25;;;1.50;;
19946;SDS011;10135;50.702;7.276;2022-07-06T10:55:37;1.55;;;1.45;;
19946;SDS011;10135;50.702;7.276;2022-07-06T10:57:52;1.20;;;1.20;;
19946;SDS011;10135;50.702;7.276;2022-07-06T11:00:10;1.30;;;1.30;;
19946;SDS011;10135;50.702;7.276;2022-07-06T11:02:18;1.33;;;1.05;;
19946;SDS011;10135;50.702;7.276;2022-07-06T11:04:18;1.30;;;1.30;;
19946;SDS011;10135;50.702;7.276;2022-07-06T11:06:32;1.70;;;1.60;;
19946;SDS011;10135;50.702;7.276;2022-07-06T11:08:48;1.33;;;1.25;;
19946;SDS011;10135;50.702;7.276;2022-07-06T11:11:43;2.08;;;1.50;;
19946;SDS011;10135;50.702;7.276;2022-07-06T11:13:33;2.50;;;1.38;;
19946;SDS011;10135;50.702;7.276;2022-07-06T11:16:00;3.42;;;1.20;;
19946;SDS011;10135;50.702;7.276;2022-07-06T11:18:12;3.58;;;1.42;;
19946;SDS011;10135;50.702;7.276;2022-07-06T11:20:13;1.88;;;1.70;;
19946;SDS011;10135;50.702;7.276;2022-07-06T11:22:14;1.55;;;1.23;;
19946;SDS011;10135;50.702;7.276;2022-07-06T11:24:27;1.30;;;1.30;;
19946;SDS011;10135;50.702;7.276;2022-07-06T11:26:30;1.80;;;1.30;;
19946;SDS011;10135;50.702;7.276;2022-07-06T11:28:31;3.72;;;1.15;;
19946;SDS011;10135;50.702;7.276;2022-07-06T11:30:32;1.48;;;1.35;;
19946;SDS011;10135;50.702;7.276;2022-07-06T11:32:34;1.75;;;1.20;;
19946;SDS011;10135;50.702;7.276;2022-07-06T11:34:36;1.75;;;1.10;;
19946;SDS011;10135;50.702;7.276;2022-07-06T11:36:40;1.30;;;1.17;;
19946;SDS011;10135;50.702;7.276;2022-07-06T11:38:42;1.95;;;1.13;;
19946;SDS011;10135;50.702;7.276;2022-07-06T11:40:43;1.20;;;1.15;;
19946;SDS011;10135;50.702;7.276;2022-07-06T11:42:53;4.85;;;1.10;;
19946;SDS011;10135;50.702;7.276;2022-07-06T11:44:54;1.05;;;1.05;;
19946;SDS011;10135;50.702;7.276;2022-07-06T11:46:55;0.82;;;0.82;;
19946;SDS011;10135;50.702;7.276;2022-07-06T11:48:58;0.80;;;0.80;;
19946;SDS011;10135;50.702;7.276;2022-07-06T11:51:03;1.20;;;1.10;;
19946;SDS011;10135;50.702;7.276;2022-07-06T11:53:04;1.20;;;1.00;;
19946;SDS011;10135;50.702;7.276;2022-07-06T11:55:04;1.33;;;0.88;;
19946;SDS011;10135;50.702;7.276;2022-07-06T11:57:09;1.00;;;1.00;;
19946;SDS011;10135;50.702;7.276;2022-07-06T11:59:11;1.15;;;0.75;;
19946;SDS011;10135;50.702;7.276;2022-07-06T12:01:12;1.67;;;0.80;;
19946;SDS011;10135;50.702;7.276;2022-07-06T12:03:15;0.82;;;0.73;;
19946;SDS011;10135;50.702;7.276;2022-07-06T12:05:28;2.88;;;1.20;;
19946;SDS011;10135;50.702;7.276;2022-07-06T12:07:30;2.50;;;1.00;;
19946;SDS011;10135;50.702;7.276;2022-07-06T12:09:31;1.27;;;1.17;;
19946;SDS011;10135;50.702;7.276;2022-07-06T12:11:37;1.10;;;1.00;;
19946;SDS011;10135;50.702;7.276;2022-07-06T12:13:39;1.20;;;1.20;;
19946;SDS011;10135;50.702;7.276;2022-07-06T12:15:40;1.50;;;1.10;;
19946;SDS011;10135;50.702;7.276;2022-07-06T12:17:46;1.17;;;1.00;;